sensor_id;sensor_type;location;lat;lon;timestamp;pressure;altitude;pressure_sealevel;temperature;humidity
8298;BME280;4187;42.778;23.242;2023-01-20T00:00:00;94316.28;;;8.18;100.00
8298;BME280;4187;42.778;23.242;2023-01-20T00:02:29;94338.91;;;8.11;100.00
8298;BME280;4187;42.778;23.242;2023-01-20T00:04:56;94368.72;;;8.02;100.00
8298;BME280;4187;42.778;23.242;2023-01-20T00:20:55;94124.09;;;8.05;100.00
8298;BME280;4187;42.778;23.242;2023-01-20T00:23:21;94116.03;;;8.06;100.00
8298;BME280;4187;42.778;23.242;2023-01-20T00:25:48;94147.72;;;8.05;100.00
8298;BME280;4187;42.778;23.242;2023-01-20T00:28:16;94167.09;;;8.04;100.00
8298;BME280;4187;42.778;23.242;2023-01-20T00:30:43;94156.06;;;8.00;100.00
8298;BME280;4187;42.778;23.242;2023-01-20T00:33:09;94171.13;;;7.90;100.00
8298;BME280;4187;42.778;23.242;2023-01-20T00:35:39;94188.00;;;7.88;100.00
8298;BME280;4187;42.778;23.242;2023-01-20T00:38:08;94170.81;;;7.93;100.00
8298;BME280;4187;42.778;23.242;2023-01-20T00:40:34;94173.75;;;7.90;100.00
8298;BME280;4187;42.778;23.242;2023-01-20T00:43:01;94181.31;;;7.93;100.00
8298;BME280;4187;42.778;23.242;2023-01-20T00:45:28;94165.88;;;7.90;100.00
8298;BME280;4187;42.778;23.242;2023-01-20T00:47:55;94162.94;;;7.93;100.00
8298;BME280;4187;42.778;23.242;2023-01-20T00:50:22;94162.06;;;7.84;100.00
8298;BME280;4187;42.778;23.242;2023-01-20T00:52:49;94177.03;;;7.92;100.00
8298;BME280;4187;42.778;23.242;2023-01-20T00:55:17;94185.28;;;7.97;100.00
8298;BME280;4187;42.778;23.242;2023-01-20T00:57:44;94205.19;;;8.00;100.00
8298;BME280;4187;42.778;23.242;2023-01-20T01:00:11;94207.69;;;8.09;100.00
8298;BME280;4187;42.778;23.242;2023-01-20T01:02:38;94218.22;;;8.17;100.00
8298;BME280;4187;42.778;23.242;2023-01-20T01:05:05;94218.28;;;8.25;100.00
8298;BME280;4187;42.778;23.242;2023-01-20T01:07:32;94185.66;;;8.36;100.00
8298;BME280;4187;42.778;23.242;2023-01-20T01:09:59;94158.56;;;8.43;100.00
8298;BME280;4187;42.778;23.242;2023-01-20T01:12:27;94162.38;;;8.49;100.00
8298;BME280;4187;42.778;23.242;2023-01-20T01:14:54;94161.22;;;8.52;100.00
8298;BME280;4187;42.778;23.242;2023-01-20T01:17:22;94163.38;;;8.48;100.00
8298;BME280;4187;42.778;23.242;2023-01-20T01:19:50;94154.16;;;8.52;100.00
8298;BME280;4187;42.778;23.242;2023-01-20T01:22:17;94158.28;;;8.55;100.00
8298;BME280;4187;42.778;23.242;2023-01-20T01:24:44;94169.66;;;8.63;100.00
8298;BME280;4187;42.778;23.242;2023-01-20T01:27:11;94140.25;;;8.68;100.00
8298;BME280;4187;42.778;23.242;2023-01-20T01:29:40;94135.34;;;8.73;100.00
8298;BME280;4187;42.778;23.242;2023-01-20T01:32:06;94162.94;;;8.77;100.00
8298;BME280;4187;42.778;23.242;2023-01-20T01:34:33;94200.59;;;8.77;100.00
8298;BME280;4187;42.778;23.242;2023-01-20T01:37:00;94154.91;;;8.78;100.00
8298;BME280;4187;42.778;23.242;2023-01-20T01:39:27;94177.78;;;8.86;100.00
8298;BME280;4187;42.778;23.242;2023-01-20T01:41:54;94178.94;;;8.91;100.00
8298;BME280;4187;42.778;23.242;2023-01-20T01:44:21;94136.03;;;8.99;100.00
8298;BME280;4187;42.778;23.242;2023-01-20T01:46:49;94145.09;;;9.05;100.00
8298;BME280;4187;42.778;23.242;2023-01-20T01:49:19;94137.84;;;9.07;100.00
8298;BME280;4187;42.778;23.242;2023-01-20T01:51:50;94148.88;;;9.02;100.00
8298;BME280;4187;42.778;23.242;2023-01-20T01:54:20;94141.13;;;9.09;100.00
8298;BME280;4187;42.778;23.242;2023-01-20T01:56:49;94164.00;;;9.08;100.00
8298;BME280;4187;42.778;23.242;2023-01-20T01:59:17;94144.44;;;9.02;100.00
8298;BME280;4187;42.778;23.242;2023-01-20T02:01:47;94147.72;;;9.13;100.00
8298;BME280;4187;42.778;23.242;2023-01-20T02:04:17;94186.03;;;9.15;100.00
8298;BME280;4187;42.778;23.242;2023-01-20T02:06:49;94171.91;;;9.16;100.00
8298;BME280;4187;42.778;23.242;2023-01-20T02:09:17;94113.66;;;9.03;100.00
8298;BME280;4187;42.778;23.242;2023-01-20T02:11:46;94139.19;;;9.19;100.00
8298;BME280;4187;42.778;23.242;2023-01-20T02:14:15;94150.34;;;9.21;100.00
8298;BME280;4187;42.778;23.242;2023-01-20T02:16:52;94139.66;;;9.22;100.00
8298;BME280;4187;42.778;23.242;2023-01-20T02:22:34;94154.78;;;9.28;100.00
8298;BME280;4187;42.778;23.242;2023-01-20T02:25:42;94136.22;;;9.22;100.00
8298;BME280;4187;42.778;23.242;2023-01-20T02:28:44;94139.00;;;9.28;100.00
8298;BME280;4187;42.778;23.242;2023-01-20T02:34:36;94139.66;;;9.22;100.00
8298;BME280;4187;42.778;23.242;2023-01-20T02:37:09;94128.66;;;9.35;100.00
8298;BME280;4187;42.778;23.242;2023-01-20T02:39:43;94146.06;;;9.36;100.00
8298;BME280;4187;42.778;23.242;2023-01-20T02:42:17;94125.00;;;9.36;100.00
8298;BME280;4187;42.778;23.242;2023-01-20T02:44:52;94096.88;;;9.28;100.00
8298;BME280;4187;42.778;23.242;2023-01-20T02:47:22;94071.91;;;9.24;100.00
8298;BME280;4187;42.778;23.242;2023-01-20T02:49:57;94072.38;;;9.03;100.00
8298;BME280;4187;42.778;23.242;2023-01-20T02:52:30;94086.69;;;8.93;100.00
8298;BME280;4187;42.778;23.242;2023-01-20T02:55:03;94054.78;;;8.64;100.00
8298;BME280;4187;42.778;23.242;2023-01-20T02:57:35;94042.28;;;8.82;100.00
8298;BME280;4187;42.778;23.242;2023-01-20T03:00:08;94089.66;;;8.90;100.00
8298;BME280;4187;42.778;23.242;2023-01-20T03:02:39;94082.91;;;8.87;100.00
8298;BME280;4187;42.778;23.242;2023-01-20T03:05:11;94073.84;;;8.74;100.00
8298;BME280;4187;42.778;23.242;2023-01-20T03:07:40;94065.31;;;8.72;100.00
8298;BME280;4187;42.778;23.242;2023-01-20T03:10:11;94081.25;;;8.70;100.00
8298;BME280;4187;42.778;23.242;2023-01-20T03:12:44;94072.88;;;8.67;100.00
8298;BME280;4187;42.778;23.242;2023-01-20T03:15:12;94057.72;;;8.53;100.00
8298;BME280;4187;42.778;23.242;2023-01-20T03:17:39;94078.63;;;8.70;100.00
8298;BME280;4187;42.778;23.242;2023-01-20T03:20:09;94084.88;;;8.69;100.00
8298;BME280;4187;42.778;23.242;2023-01-20T03:22:36;94091.94;;;8.69;100.00
8298;BME280;4187;42.778;23.242;2023-01-20T03:25:04;94082.06;;;8.63;100.00
8298;BME280;4187;42.778;23.242;2023-01-20T03:27:33;94066.13;;;8.64;100.00
8298;BME280;4187;42.778;23.242;2023-01-20T03:29:59;94072.22;;;8.65;100.00
8298;BME280;4187;42.778;23.242;2023-01-20T03:32:27;94078.47;;;8.72;100.00
8298;BME280;4187;42.778;23.242;2023-01-20T03:34:56;94076.66;;;8.64;100.00
8298;BME280;4187;42.778;23.242;2023-01-20T03:37:25;94075.63;;;8.65;100.00
8298;BME280;4187;42.778;23.242;2023-01-20T03:39:52;94076.00;;;8.62;100.00
8298;BME280;4187;42.778;23.242;2023-01-20T03:42:24;94077.13;;;8.68;100.00
8298;BME280;4187;42.778;23.242;2023-01-20T03:45:05;94084.34;;;8.66;100.00
8298;BME280;4187;42.778;23.242;2023-01-20T03:47:54;94089.94;;;8.71;100.00
8298;BME280;4187;42.778;23.242;2023-01-20T03:50:31;94100.47;;;8.63;100.00
8298;BME280;4187;42.778;23.242;2023-01-20T03:53:06;94089.16;;;8.62;100.00
8298;BME280;4187;42.778;23.242;2023-01-20T03:55:40;94081.72;;;8.66;100.00
8298;BME280;4187;42.778;23.242;2023-01-20T03:58:11;94068.44;;;8.59;100.00
8298;BME280;4187;42.778;23.242;2023-01-20T04:00:42;94065.47;;;8.54;100.00
8298;BME280;4187;42.778;23.242;2023-01-20T04:03:14;94069.88;;;8.46;100.00
8298;BME280;4187;42.778;23.242;2023-01-20T04:05:43;94073.84;;;8.58;100.00
8298;BME280;4187;42.778;23.242;2023-01-20T04:08:13;94057.06;;;8.59;100.00
8298;BME280;4187;42.778;23.242;2023-01-20T04:10:43;94035.03;;;8.60;100.00
8298;BME280;4187;42.778;23.242;2023-01-20T04:13:12;94045.56;;;8.68;100.00
8298;BME280;4187;42.778;23.242;2023-01-20T04:15:42;94038.81;;;8.65;100.00
8298;BME280;4187;42.778;23.242;2023-01-20T04:18:11;94037.03;;;8.66;100.00
8298;BME280;4187;42.778;23.242;2023-01-20T04:20:38;94034.41;;;8.66;100.00
8298;BME280;4187;42.778;23.242;2023-01-20T04:23:07;94042.28;;;8.66;100.00
8298;BME280;4187;42.778;23.242;2023-01-20T04:25:39;94040.66;;;8.57;100.00
8298;BME280;4187;42.778;23.242;2023-01-20T04:28:06;94028.31;;;8.57;100.00
8298;BME280;4187;42.778;23.242;2023-01-20T04:30:33;94027.84;;;8.62;100.00
8298;BME280;4187;42.778;23.242;2023-01-20T04:32:59;94025.34;;;8.60;100.00
8298;BME280;4187;42.778;23.242;2023-01-20T04:35:26;94027.16;;;8.52;100.00
8298;BME280;4187;42.778;23.242;2023-01-20T04:37:53;94027.00;;;8.53;100.00
8298;BME280;4187;42.778;23.242;2023-01-20T04:40:20;94030.94;;;8.49;100.00
8298;BME280;4187;42.778;23.242;2023-01-20T04:42:48;94032.75;;;8.57;100.00
8298;BME280;4187;42.778;23.242;2023-01-20T04:45:15;94050.03;;;8.59;100.00
8298;BME280;4187;42.778;23.242;2023-01-20T04:47:43;94046.88;;;8.56;100.00
8298;BME280;4187;42.778;23.242;2023-01-20T04:50:10;94051.81;;;8.59;100.00
8298;BME280;4187;42.778;23.242;2023-01-20T04:52:38;94041.47;;;8.65;100.00
8298;BME280;4187;42.778;23.242;2023-01-20T04:55:05;94058.75;;;8.76;100.00
8298;BME280;4187;42.778;23.242;2023-01-20T04:57:32;94051.84;;;8.75;100.00
8298;BME280;4187;42.778;23.242;2023-01-20T05:00:00;94059.22;;;8.79;100.00
8298;BME280;4187;42.778;23.242;2023-01-20T05:02:27;94069.59;;;8.89;100.00
8298;BME280;4187;42.778;23.242;2023-01-20T05:04:54;94084.06;;;8.93;100.00
8298;BME280;4187;42.778;23.242;2023-01-20T05:07:21;94089.97;;;9.03;100.00
8298;BME280;4187;42.778;23.242;2023-01-20T05:09:47;94039.66;;;8.74;100.00
8298;BME280;4187;42.778;23.242;2023-01-20T05:12:14;94078.16;;;8.91;100.00
8298;BME280;4187;42.778;23.242;2023-01-20T05:14:41;94091.63;;;8.96;100.00
8298;BME280;4187;42.778;23.242;2023-01-20T05:17:09;94083.41;;;8.91;100.00
8298;BME280;4187;42.778;23.242;2023-01-20T05:19:36;94071.91;;;8.92;100.00
8298;BME280;4187;42.778;23.242;2023-01-20T05:22:02;94055.13;;;8.85;100.00
8298;BME280;4187;42.778;23.242;2023-01-20T05:24:29;94072.38;;;8.87;100.00
8298;BME280;4187;42.778;23.242;2023-01-20T05:26:59;94073.22;;;8.80;100.00
8298;BME280;4187;42.778;23.242;2023-01-20T05:29:26;94076.16;;;8.69;100.00
8298;BME280;4187;42.778;23.242;2023-01-20T05:31:53;94080.41;;;8.54;100.00
8298;BME280;4187;42.778;23.242;2023-01-20T05:34:21;94090.41;;;8.50;100.00
8298;BME280;4187;42.778;23.242;2023-01-20T05:36:50;94093.34;;;8.39;100.00
8298;BME280;4187;42.778;23.242;2023-01-20T05:39:17;94100.56;;;8.37;100.00
8298;BME280;4187;42.778;23.242;2023-01-20T05:41:44;94097.94;;;8.29;100.00
8298;BME280;4187;42.778;23.242;2023-01-20T05:44:11;94086.19;;;8.15;100.00
8298;BME280;4187;42.778;23.242;2023-01-20T05:46:38;94073.06;;;8.15;100.00
8298;BME280;4187;42.778;23.242;2023-01-20T05:49:04;94076.53;;;8.24;100.00
8298;BME280;4187;42.778;23.242;2023-01-20T05:51:33;94063.91;;;8.27;100.00
8298;BME280;4187;42.778;23.242;2023-01-20T05:54:00;93980.41;;;8.05;100.00
8298;BME280;4187;42.778;23.242;2023-01-20T05:56:27;94026.47;;;8.41;100.00
8298;BME280;4187;42.778;23.242;2023-01-20T05:58:54;94052.13;;;8.48;100.00
8298;BME280;4187;42.778;23.242;2023-01-20T06:01:21;94055.59;;;8.56;100.00
8298;BME280;4187;42.778;23.242;2023-01-20T06:03:48;94068.44;;;8.59;100.00
8298;BME280;4187;42.778;23.242;2023-01-20T06:06:15;94059.53;;;8.60;100.00
8298;BME280;4187;42.778;23.242;2023-01-20T06:08:44;94050.81;;;8.68;100.00
8298;BME280;4187;42.778;23.242;2023-01-20T06:11:11;94092.91;;;8.68;100.00
8298;BME280;4187;42.778;23.242;2023-01-20T06:13:39;94046.88;;;8.56;100.00
8298;BME280;4187;42.778;23.242;2023-01-20T06:16:06;94045.75;;;8.74;100.00
8298;BME280;4187;42.778;23.242;2023-01-20T06:18:33;94053.00;;;8.80;100.00
8298;BME280;4187;42.778;23.242;2023-01-20T06:21:00;94046.25;;;8.94;100.00
8298;BME280;4187;42.778;23.242;2023-01-20T06:23:27;94047.72;;;8.88;100.00
8298;BME280;4187;42.778;23.242;2023-01-20T06:26:00;94076.66;;;9.05;100.00
8298;BME280;4187;42.778;23.242;2023-01-20T06:28:28;94067.97;;;9.83;100.00
8298;BME280;4187;42.778;23.242;2023-01-20T06:30:59;94058.66;;;10.03;100.00
8298;BME280;4187;42.778;23.242;2023-01-20T06:33:26;94065.06;;;10.09;100.00
8298;BME280;4187;42.778;23.242;2023-01-20T06:35:53;94063.50;;;9.92;100.00
8298;BME280;4187;42.778;23.242;2023-01-20T06:38:21;94064.50;;;9.83;100.00
8298;BME280;4187;42.778;23.242;2023-01-20T06:40:48;94050.91;;;9.63;100.00
8298;BME280;4187;42.778;23.242;2023-01-20T06:43:16;94061.28;;;9.65;100.00
8298;BME280;4187;42.778;23.242;2023-01-20T06:45:43;94065.09;;;9.62;100.00
8298;BME280;4187;42.778;23.242;2023-01-20T06:48:10;94056.38;;;9.53;100.00
8298;BME280;4187;42.778;23.242;2023-01-20T06:50:37;94037.81;;;9.39;100.00
8298;BME280;4187;42.778;23.242;2023-01-20T06:53:04;94050.78;;;9.56;100.00
8298;BME280;4187;42.778;23.242;2023-01-20T06:55:30;94054.09;;;9.42;100.00
8298;BME280;4187;42.778;23.242;2023-01-20T06:57:57;94064.94;;;9.47;100.00
8298;BME280;4187;42.778;23.242;2023-01-20T07:00:26;94062.00;;;9.42;100.00
8298;BME280;4187;42.778;23.242;2023-01-20T07:02:53;94057.69;;;9.41;100.00
8298;BME280;4187;42.778;23.242;2023-01-20T07:05:19;94045.53;;;9.40;100.00
8298;BME280;4187;42.778;23.242;2023-01-20T07:07:46;94043.41;;;9.36;100.00
8298;BME280;4187;42.778;23.242;2023-01-20T07:10:13;94045.88;;;9.37;100.00
8298;BME280;4187;42.778;23.242;2023-01-20T07:12:40;94045.69;;;9.39;100.00
8298;BME280;4187;42.778;23.242;2023-01-20T07:15:07;94057.25;;;9.30;100.00
8298;BME280;4187;42.778;23.242;2023-01-20T07:17:36;94026.97;;;9.18;100.00
8298;BME280;4187;42.778;23.242;2023-01-20T07:20:03;94063.31;;;9.14;100.00
8298;BME280;4187;42.778;23.242;2023-01-20T07:22:30;94047.22;;;9.09;100.00
8298;BME280;4187;42.778;23.242;2023-01-20T07:24:57;94042.94;;;9.16;100.00
8298;BME280;4187;42.778;23.242;2023-01-20T07:27:23;94025.19;;;9.10;100.00
8298;BME280;4187;42.778;23.242;2023-01-20T07:29:50;94039.50;;;9.16;100.00
8298;BME280;4187;42.778;23.242;2023-01-20T07:32:17;94012.06;;;8.94;100.00
8298;BME280;4187;42.778;23.242;2023-01-20T07:34:46;94028.31;;;9.14;100.00
8298;BME280;4187;42.778;23.242;2023-01-20T07:37:12;94008.06;;;9.06;100.00
8298;BME280;4187;42.778;23.242;2023-01-20T07:39:39;94038.97;;;9.20;100.00
8298;BME280;4187;42.778;23.242;2023-01-20T07:42:06;94032.75;;;9.21;100.00
8298;BME280;4187;42.778;23.242;2023-01-20T07:44:33;94029.63;;;9.10;100.00
8298;BME280;4187;42.778;23.242;2023-01-20T07:47:00;94012.69;;;9.12;100.00
8298;BME280;4187;42.778;23.242;2023-01-20T07:49:27;94018.28;;;9.01;100.00
8298;BME280;4187;42.778;23.242;2023-01-20T07:51:56;94013.50;;;9.05;100.00
8298;BME280;4187;42.778;23.242;2023-01-20T07:54:22;94010.88;;;9.05;100.00
8298;BME280;4187;42.778;23.242;2023-01-20T07:56:49;94013.00;;;9.80;100.00
8298;BME280;4187;42.778;23.242;2023-01-20T07:59:16;94013.69;;;11.41;100.00
8298;BME280;4187;42.778;23.242;2023-01-20T08:01:43;94010.84;;;11.28;100.00
8298;BME280;4187;42.778;23.242;2023-01-20T08:04:09;94006.56;;;10.90;100.00
8298;BME280;4187;42.778;23.242;2023-01-20T08:06:37;93998.97;;;10.49;100.00
8298;BME280;4187;42.778;23.242;2023-01-20T08:09:05;93996.66;;;10.24;100.00
8298;BME280;4187;42.778;23.242;2023-01-20T08:11:36;94008.13;;;10.00;100.00
8298;BME280;4187;42.778;23.242;2023-01-20T08:14:03;94010.09;;;9.59;100.00
8298;BME280;4187;42.778;23.242;2023-01-20T08:16:30;93994.50;;;9.49;100.00
8298;BME280;4187;42.778;23.242;2023-01-20T08:18:57;93981.22;;;9.35;100.00
8298;BME280;4187;42.778;23.242;2023-01-20T08:21:25;93932.09;;;9.03;100.00
8298;BME280;4187;42.778;23.242;2023-01-20T08:23:54;93964.00;;;9.16;100.00
8298;BME280;4187;42.778;23.242;2023-01-20T08:26:22;93980.09;;;9.21;100.00
8298;BME280;4187;42.778;23.242;2023-01-20T08:28:50;93982.06;;;9.19;100.00
8298;BME280;4187;42.778;23.242;2023-01-20T08:31:19;93988.97;;;9.20;100.00
8298;BME280;4187;42.778;23.242;2023-01-20T08:33:47;93992.59;;;9.19;100.00
8298;BME280;4187;42.778;23.242;2023-01-20T08:36:16;93998.22;;;9.08;100.00
8298;BME280;4187;42.778;23.242;2023-01-20T08:38:43;94003.63;;;9.07;100.00
8298;BME280;4187;42.778;23.242;2023-01-20T08:41:13;93991.66;;;8.96;100.00
8298;BME280;4187;42.778;23.242;2023-01-20T08:43:41;93986.22;;;9.06;100.00
8298;BME280;4187;42.778;23.242;2023-01-20T08:46:10;93976.81;;;9.11;100.00
8298;BME280;4187;42.778;23.242;2023-01-20T08:48:39;93955.75;;;9.11;100.00
8298;BME280;4187;42.778;23.242;2023-01-20T08:51:09;93957.72;;;9.17;100.00
8298;BME280;4187;42.778;23.242;2023-01-20T08:53:36;93955.91;;;9.18;100.00
8298;BME280;4187;42.778;23.242;2023-01-20T08:56:04;93954.94;;;9.19;100.00
8298;BME280;4187;42.778;23.242;2023-01-20T08:58:30;93946.00;;;9.28;100.00
8298;BME280;4187;42.778;23.242;2023-01-20T09:00:59;93945.84;;;9.37;100.00
8298;BME280;4187;42.778;23.242;2023-01-20T09:03:26;93942.16;;;9.46;100.00
8298;BME280;4187;42.778;23.242;2023-01-20T09:05:53;93945.28;;;9.50;100.00
8298;BME280;4187;42.778;23.242;2023-01-20T09:08:20;93940.16;;;9.56;100.00
8298;BME280;4187;42.778;23.242;2023-01-20T09:10:51;93929.19;;;9.45;100.00
8298;BME280;4187;42.778;23.242;2023-01-20T09:13:18;93941.53;;;9.44;100.00
8298;BME280;4187;42.778;23.242;2023-01-20T09:15:50;93948.78;;;9.42;100.00
8298;BME280;4187;42.778;23.242;2023-01-20T09:18:18;93945.50;;;9.40;100.00
8298;BME280;4187;42.778;23.242;2023-01-20T09:20:45;93951.75;;;9.39;100.00
8298;BME280;4187;42.778;23.242;2023-01-20T09:23:12;93946.16;;;9.34;100.00
8298;BME280;4187;42.778;23.242;2023-01-20T09:25:38;93956.69;;;9.34;100.00
8298;BME280;4187;42.778;23.242;2023-01-20T09:28:05;93945.69;;;9.31;100.00
8298;BME280;4187;42.778;23.242;2023-01-20T09:30:32;93935.78;;;9.33;100.00
8298;BME280;4187;42.778;23.242;2023-01-20T09:32:59;93933.53;;;9.30;100.00
8298;BME280;4187;42.778;23.242;2023-01-20T09:35:27;93923.19;;;9.20;100.00
8298;BME280;4187;42.778;23.242;2023-01-20T09:37:54;93927.41;;;9.37;100.00
8298;BME280;4187;42.778;23.242;2023-01-20T09:40:58;93922.78;;;9.39;100.00
8298;BME280;4187;42.778;23.242;2023-01-20T09:43:52;93920.81;;;9.33;100.00
8298;BME280;4187;42.778;23.242;2023-01-20T09:46:38;93912.28;;;9.31;100.00
8298;BME280;4187;42.778;23.242;2023-01-20T09:49:19;93921.19;;;9.22;100.00
8298;BME280;4187;42.778;23.242;2023-01-20T09:52:12;93931.06;;;9.20;100.00
8298;BME280;4187;42.778;23.242;2023-01-20T09:55:05;93920.06;;;9.17;100.00
8298;BME280;4187;42.778;23.242;2023-01-20T09:57:35;93929.59;;;9.18;100.00
8298;BME280;4187;42.778;23.242;2023-01-20T10:00:08;93926.00;;;9.19;100.00
8298;BME280;4187;42.778;23.242;2023-01-20T10:02:44;93914.16;;;9.15;100.00
8298;BME280;4187;42.778;23.242;2023-01-20T10:05:17;93925.16;;;9.18;100.00
8298;BME280;4187;42.778;23.242;2023-01-20T10:07:51;93932.69;;;9.29;100.00
8298;BME280;4187;42.778;23.242;2023-01-20T10:10:23;93921.69;;;9.26;100.00
8298;BME280;4187;42.778;23.242;2023-01-20T10:12:54;93926.31;;;9.24;100.00
8298;BME280;4187;42.778;23.242;2023-01-20T10:15:27;93920.00;;;9.33;100.00
8298;BME280;4187;42.778;23.242;2023-01-20T10:17:57;93905.88;;;9.26;100.00
8298;BME280;4187;42.778;23.242;2023-01-20T10:20:29;93911.75;;;9.36;100.00
8298;BME280;4187;42.778;23.242;2023-01-20T10:23:05;93885.41;;;9.44;100.00
8298;BME280;4187;42.778;23.242;2023-01-20T10:25:39;93880.28;;;9.50;100.00
8298;BME280;4187;42.778;23.242;2023-01-20T10:28:11;93866.50;;;9.71;100.00
8298;BME280;4187;42.778;23.242;2023-01-20T10:30:40;93869.16;;;9.94;100.00
8298;BME280;4187;42.778;23.242;2023-01-20T10:33:10;93877.09;;;10.16;100.00
8298;BME280;4187;42.778;23.242;2023-01-20T10:35:40;93884.38;;;10.52;100.00
8298;BME280;4187;42.778;23.242;2023-01-20T10:38:16;93883.00;;;10.78;100.00
8298;BME280;4187;42.778;23.242;2023-01-20T10:40:49;93896.09;;;10.87;100.00
8298;BME280;4187;42.778;23.242;2023-01-20T10:43:19;93897.56;;;11.04;100.00
8298;BME280;4187;42.778;23.242;2023-01-20T10:46:00;93898.00;;;11.22;100.00
8298;BME280;4187;42.778;23.242;2023-01-20T10:48:42;93892.47;;;11.31;100.00
8298;BME280;4187;42.778;23.242;2023-01-20T10:51:15;93889.84;;;11.31;100.00
8298;BME280;4187;42.778;23.242;2023-01-20T10:53:52;93893.09;;;11.33;100.00
8298;BME280;4187;42.778;23.242;2023-01-20T10:56:35;93895.38;;;11.36;100.00
8298;BME280;4187;42.778;23.242;2023-01-20T10:59:08;93890.56;;;11.40;100.00
8298;BME280;4187;42.778;23.242;2023-01-20T11:01:37;93895.75;;;11.48;100.00
8298;BME280;4187;42.778;23.242;2023-01-20T11:04:04;93902.03;;;11.47;100.00
8298;BME280;4187;42.778;23.242;2023-01-20T11:06:33;93903.84;;;11.47;100.00
8298;BME280;4187;42.778;23.242;2023-01-20T11:09:16;93909.59;;;11.50;100.00
8298;BME280;4187;42.778;23.242;2023-01-20T11:11:46;93897.84;;;11.53;100.00
8298;BME280;4187;42.778;23.242;2023-01-20T11:14:13;93899.66;;;11.52;100.00
8298;BME280;4187;42.778;23.242;2023-01-20T11:16:40;93909.28;;;11.60;100.00
8298;BME280;4187;42.778;23.242;2023-01-20T11:19:11;93914.50;;;11.53;100.00
8298;BME280;4187;42.778;23.242;2023-01-20T11:21:38;93909.34;;;11.95;100.00
8298;BME280;4187;42.778;23.242;2023-01-20T11:24:30;93931.72;;;11.64;100.00
8298;BME280;4187;42.778;23.242;2023-01-20T11:27:04;93931.63;;;11.28;100.00
8298;BME280;4187;42.778;23.242;2023-01-20T11:29:40;93921.06;;;11.72;100.00
8298;BME280;4187;42.778;23.242;2023-01-20T11:32:24;93930.16;;;11.25;100.00
8298;BME280;4187;42.778;23.242;2023-01-20T11:34:51;93945.84;;;10.75;100.00
8298;BME280;4187;42.778;23.242;2023-01-20T11:37:21;93948.13;;;10.10;100.00
8298;BME280;4187;42.778;23.242;2023-01-20T11:39:59;93933.78;;;9.51;100.00
8298;BME280;4187;42.778;23.242;2023-01-20T11:42:28;93928.00;;;9.00;100.00
8298;BME280;4187;42.778;23.242;2023-01-20T11:44:57;93923.13;;;8.65;100.00
8298;BME280;4187;42.778;23.242;2023-01-20T11:47:26;93933.84;;;8.31;100.00
8298;BME280;4187;42.778;23.242;2023-01-20T11:50:17;93921.28;;;8.01;100.00
8298;BME280;4187;42.778;23.242;2023-01-20T11:52:45;93931.09;;;7.75;100.00
8298;BME280;4187;42.778;23.242;2023-01-20T11:55:16;93934.69;;;7.66;100.00
8298;BME280;4187;42.778;23.242;2023-01-20T11:57:46;93949.25;;;7.60;100.00
8298;BME280;4187;42.778;23.242;2023-01-20T12:00:37;93927.34;;;7.36;100.00
8298;BME280;4187;42.778;23.242;2023-01-20T12:03:22;93960.88;;;7.50;100.00
8298;BME280;4187;42.778;23.242;2023-01-20T12:05:55;93974.31;;;7.47;100.00
8298;BME280;4187;42.778;23.242;2023-01-20T12:08:29;93976.28;;;7.45;100.00
8298;BME280;4187;42.778;23.242;2023-01-20T12:11:03;93971.97;;;7.36;100.00
8298;BME280;4187;42.778;23.242;2023-01-20T12:13:37;93993.94;;;7.35;100.00
8298;BME280;4187;42.778;23.242;2023-01-20T12:16:38;94010.75;;;7.16;100.00
8298;BME280;4187;42.778;23.242;2023-01-20T12:19:12;94034.19;;;6.92;100.00
8298;BME280;4187;42.778;23.242;2023-01-20T12:21:46;94037.91;;;6.63;100.00
8298;BME280;4187;42.778;23.242;2023-01-20T12:24:17;94044.44;;;6.24;100.00
8298;BME280;4187;42.778;23.242;2023-01-20T12:26:47;94057.28;;;6.18;100.00
8298;BME280;4187;42.778;23.242;2023-01-20T12:29:18;94054.75;;;6.08;100.00
8298;BME280;4187;42.778;23.242;2023-01-20T12:31:47;94053.53;;;6.03;100.00
8298;BME280;4187;42.778;23.242;2023-01-20T12:34:16;94055.16;;;6.03;100.00
8298;BME280;4187;42.778;23.242;2023-01-20T12:37:02;94026.84;;;5.89;100.00
8298;BME280;4187;42.778;23.242;2023-01-20T12:39:54;94042.53;;;6.17;100.00
8298;BME280;4187;42.778;23.242;2023-01-20T12:42:53;94060.66;;;6.28;100.00
8298;BME280;4187;42.778;23.242;2023-01-20T12:48:44;94058.72;;;6.30;100.00
8298;BME280;4187;42.778;23.242;2023-01-20T12:51:33;94073.00;;;6.18;100.00
8298;BME280;4187;42.778;23.242;2023-01-20T12:54:27;94064.09;;;6.11;100.00
8298;BME280;4187;42.778;23.242;2023-01-20T12:57:06;94070.50;;;5.98;100.00
8298;BME280;4187;42.778;23.242;2023-01-20T12:59:43;94073.94;;;5.99;100.00
8298;BME280;4187;42.778;23.242;2023-01-20T13:02:40;94064.59;;;5.96;100.00
8298;BME280;4187;42.778;23.242;2023-01-20T13:05:27;94071.78;;;5.94;100.00
8298;BME280;4187;42.778;23.242;2023-01-20T13:08:09;94059.72;;;6.01;100.00
8298;BME280;4187;42.778;23.242;2023-01-20T13:10:50;93990.75;;;5.66;100.00
8298;BME280;4187;42.778;23.242;2023-01-20T13:13:32;94060.41;;;6.03;100.00
8298;BME280;4187;42.778;23.242;2023-01-20T13:16:11;94026.34;;;5.76;100.00
8298;BME280;4187;42.778;23.242;2023-01-20T13:18:53;94055.25;;;5.94;100.00
8298;BME280;4187;42.778;23.242;2023-01-20T13:21:29;94067.59;;;6.01;100.00
8298;BME280;4187;42.778;23.242;2023-01-20T13:23:58;94067.00;;;6.08;100.00
8298;BME280;4187;42.778;23.242;2023-01-20T13:26:26;94075.88;;;5.97;100.00
8298;BME280;4187;42.778;23.242;2023-01-20T13:28:55;94079.31;;;5.97;100.00
8298;BME280;4187;42.778;23.242;2023-01-20T13:31:42;94083.88;;;5.95;100.00
8298;BME280;4187;42.778;23.242;2023-01-20T13:40:57;94071.66;;;6.14;100.00
8298;BME280;4187;42.778;23.242;2023-01-20T13:43:45;94065.94;;;6.00;100.00
8298;BME280;4187;42.778;23.242;2023-01-20T13:46:45;94067.34;;;5.95;100.00
8298;BME280;4187;42.778;23.242;2023-01-20T13:49:23;94062.06;;;6.05;100.00
8298;BME280;4187;42.778;23.242;2023-01-20T13:51:50;94031.38;;;5.70;100.00
8298;BME280;4187;42.778;23.242;2023-01-20T13:54:41;94068.16;;;5.95;100.00
8298;BME280;4187;42.778;23.242;2023-01-20T13:57:35;94094.41;;;5.76;100.00
8298;BME280;4187;42.778;23.242;2023-01-20T14:00:11;94090.00;;;6.31;100.00